sensor_id;sensor_type;location;lat;lon;timestamp;temperature;humidity
11824;DHT22;5969;50.780;7.726;2023-05-07T00:01:59;13.30;99.90
11824;DHT22;5969;50.780;7.726;2023-05-07T00:04:26;13.30;99.90
11824;DHT22;5969;50.780;7.726;2023-05-07T00:06:53;13.30;99.90
11824;DHT22;5969;50.780;7.726;2023-05-07T00:09:20;13.30;99.90
11824;DHT22;5969;50.780;7.726;2023-05-07T00:11:47;13.30;99.90
11824;DHT22;5969;50.780;7.726;2023-05-07T00:14:14;13.30;99.90
11824;DHT22;5969;50.780;7.726;2023-05-07T00:16:42;13.30;99.90
11824;DHT22;5969;50.780;7.726;2023-05-07T00:19:08;13.40;99.90
11824;DHT22;5969;50.780;7.726;2023-05-07T00:21:35;13.40;99.90
11824;DHT22;5969;50.780;7.726;2023-05-07T00:24:02;13.40;99.90
11824;DHT22;5969;50.780;7.726;2023-05-07T00:26:28;13.40;99.90
11824;DHT22;5969;50.780;7.726;2023-05-07T00:28:55;13.50;99.90
11824;DHT22;5969;50.780;7.726;2023-05-07T00:31:22;13.50;99.90
11824;DHT22;5969;50.780;7.726;2023-05-07T00:33:50;13.40;99.90
11824;DHT22;5969;50.780;7.726;2023-05-07T00:36:17;13.40;99.90
11824;DHT22;5969;50.780;7.726;2023-05-07T00:38:44;13.40;99.90
11824;DHT22;5969;50.780;7.726;2023-05-07T00:41:11;13.40;99.90
11824;DHT22;5969;50.780;7.726;2023-05-07T00:43:38;13.40;99.90
11824;DHT22;5969;50.780;7.726;2023-05-07T00:46:05;13.40;99.90
11824;DHT22;5969;50.780;7.726;2023-05-07T00:48:32;13.40;99.90
11824;DHT22;5969;50.780;7.726;2023-05-07T00:51:00;13.40;99.90
11824;DHT22;5969;50.780;7.726;2023-05-07T00:53:27;13.40;99.90
11824;DHT22;5969;50.780;7.726;2023-05-07T00:55:54;13.30;99.90
11824;DHT22;5969;50.780;7.726;2023-05-07T00:58:21;13.20;99.90
11824;DHT22;5969;50.780;7.726;2023-05-07T01:00:48;13.20;99.90
11824;DHT22;5969;50.780;7.726;2023-05-07T01:03:15;13.20;99.90
11824;DHT22;5969;50.780;7.726;2023-05-07T01:05:43;13.30;99.90
11824;DHT22;5969;50.780;7.726;2023-05-07T01:08:13;13.40;99.90
11824;DHT22;5969;50.780;7.726;2023-05-07T01:10:41;13.30;99.90
11824;DHT22;5969;50.780;7.726;2023-05-07T01:13:08;13.20;99.90
11824;DHT22;5969;50.780;7.726;2023-05-07T01:15:35;13.10;99.90
11824;DHT22;5969;50.780;7.726;2023-05-07T01:18:03;13.10;99.90
11824;DHT22;5969;50.780;7.726;2023-05-07T01:20:30;13.20;99.90
11824;DHT22;5969;50.780;7.726;2023-05-07T01:22:59;13.10;99.90
11824;DHT22;5969;50.780;7.726;2023-05-07T01:25:27;13.20;99.90
11824;DHT22;5969;50.780;7.726;2023-05-07T01:27:54;13.20;99.90
11824;DHT22;5969;50.780;7.726;2023-05-07T01:30:27;13.20;99.90
11824;DHT22;5969;50.780;7.726;2023-05-07T01:32:58;13.20;99.90
11824;DHT22;5969;50.780;7.726;2023-05-07T01:35:27;13.10;99.90
11824;DHT22;5969;50.780;7.726;2023-05-07T01:37:55;13.20;99.90
11824;DHT22;5969;50.780;7.726;2023-05-07T01:40:24;13.20;99.90
11824;DHT22;5969;50.780;7.726;2023-05-07T01:42:52;13.10;99.90
11824;DHT22;5969;50.780;7.726;2023-05-07T01:45:20;13.10;99.90
11824;DHT22;5969;50.780;7.726;2023-05-07T01:47:46;13.10;99.90
11824;DHT22;5969;50.780;7.726;2023-05-07T01:50:14;13.10;99.90
11824;DHT22;5969;50.780;7.726;2023-05-07T01:52:44;13.10;99.90
11824;DHT22;5969;50.780;7.726;2023-05-07T01:55:11;13.10;99.90
11824;DHT22;5969;50.780;7.726;2023-05-07T01:57:39;13.00;99.90
11824;DHT22;5969;50.780;7.726;2023-05-07T02:00:07;13.00;99.90
11824;DHT22;5969;50.780;7.726;2023-05-07T02:02:34;12.90;99.90
11824;DHT22;5969;50.780;7.726;2023-05-07T02:05:01;12.90;99.90
11824;DHT22;5969;50.780;7.726;2023-05-07T02:07:28;12.90;99.90
11824;DHT22;5969;50.780;7.726;2023-05-07T02:09:55;12.80;99.90
11824;DHT22;5969;50.780;7.726;2023-05-07T02:12:21;12.80;99.90
11824;DHT22;5969;50.780;7.726;2023-05-07T02:14:49;13.00;99.90
11824;DHT22;5969;50.780;7.726;2023-05-07T02:17:16;12.90;99.90
11824;DHT22;5969;50.780;7.726;2023-05-07T02:19:43;12.90;99.90
11824;DHT22;5969;50.780;7.726;2023-05-07T02:22:10;12.90;99.90
11824;DHT22;5969;50.780;7.726;2023-05-07T02:24:37;12.90;99.90
11824;DHT22;5969;50.780;7.726;2023-05-07T02:27:03;12.90;99.90
11824;DHT22;5969;50.780;7.726;2023-05-07T02:29:30;12.90;99.90
11824;DHT22;5969;50.780;7.726;2023-05-07T02:31:58;13.00;99.90
11824;DHT22;5969;50.780;7.726;2023-05-07T02:34:25;13.00;99.90
11824;DHT22;5969;50.780;7.726;2023-05-07T02:36:52;13.00;99.90
11824;DHT22;5969;50.780;7.726;2023-05-07T02:39:18;13.00;99.90
11824;DHT22;5969;50.780;7.726;2023-05-07T02:41:46;12.90;99.90
11824;DHT22;5969;50.780;7.726;2023-05-07T02:44:13;13.00;99.90
11824;DHT22;5969;50.780;7.726;2023-05-07T02:46:40;13.00;99.90
11824;DHT22;5969;50.780;7.726;2023-05-07T02:49:08;13.00;99.90
11824;DHT22;5969;50.780;7.726;2023-05-07T02:51:37;13.00;99.90
11824;DHT22;5969;50.780;7.726;2023-05-07T02:54:04;12.90;99.90
11824;DHT22;5969;50.780;7.726;2023-05-07T02:56:32;12.90;99.90
11824;DHT22;5969;50.780;7.726;2023-05-07T02:58:59;12.80;99.90
11824;DHT22;5969;50.780;7.726;2023-05-07T03:01:25;12.80;99.90
11824;DHT22;5969;50.780;7.726;2023-05-07T03:03:53;12.80;99.90
11824;DHT22;5969;50.780;7.726;2023-05-07T03:06:22;12.80;99.90
11824;DHT22;5969;50.780;7.726;2023-05-07T03:08:49;12.80;99.90
11824;DHT22;5969;50.780;7.726;2023-05-07T03:11:18;12.80;99.90
11824;DHT22;5969;50.780;7.726;2023-05-07T03:13:45;12.90;99.90
11824;DHT22;5969;50.780;7.726;2023-05-07T03:16:12;12.90;99.90
11824;DHT22;5969;50.780;7.726;2023-05-07T03:18:38;12.90;99.90
11824;DHT22;5969;50.780;7.726;2023-05-07T03:21:05;12.80;99.90
11824;DHT22;5969;50.780;7.726;2023-05-07T03:23:33;12.90;99.90
11824;DHT22;5969;50.780;7.726;2023-05-07T03:26:00;12.90;99.90
11824;DHT22;5969;50.780;7.726;2023-05-07T03:28:27;13.00;99.90
11824;DHT22;5969;50.780;7.726;2023-05-07T03:30:54;13.00;99.90
11824;DHT22;5969;50.780;7.726;2023-05-07T03:33:20;13.00;99.90
11824;DHT22;5969;50.780;7.726;2023-05-07T03:35:47;13.00;99.90
11824;DHT22;5969;50.780;7.726;2023-05-07T03:38:14;13.00;99.90
11824;DHT22;5969;50.780;7.726;2023-05-07T03:40:42;13.00;99.90
11824;DHT22;5969;50.780;7.726;2023-05-07T03:43:09;13.00;99.90
11824;DHT22;5969;50.780;7.726;2023-05-07T03:45:35;13.00;99.90
11824;DHT22;5969;50.780;7.726;2023-05-07T03:48:03;13.00;99.90
11824;DHT22;5969;50.780;7.726;2023-05-07T03:50:29;13.00;99.90
11824;DHT22;5969;50.780;7.726;2023-05-07T03:52:56;12.90;99.90
11824;DHT22;5969;50.780;7.726;2023-05-07T03:55:23;12.90;99.90
11824;DHT22;5969;50.780;7.726;2023-05-07T03:57:52;12.90;99.90
11824;DHT22;5969;50.780;7.726;2023-05-07T04:00:18;12.80;99.90
11824;DHT22;5969;50.780;7.726;2023-05-07T04:02:48;12.70;99.90
11824;DHT22;5969;50.780;7.726;2023-05-07T04:05:16;12.80;99.90
11824;DHT22;5969;50.780;7.726;2023-05-07T04:07:43;12.70;99.90
11824;DHT22;5969;50.780;7.726;2023-05-07T04:10:10;12.70;99.90
11824;DHT22;5969;50.780;7.726;2023-05-07T04:12:36;12.70;99.90
11824;DHT22;5969;50.780;7.726;2023-05-07T04:15:05;12.80;99.90
11824;DHT22;5969;50.780;7.726;2023-05-07T04:17:32;12.80;99.90
11824;DHT22;5969;50.780;7.726;2023-05-07T04:20:00;12.80;99.90
11824;DHT22;5969;50.780;7.726;2023-05-07T04:22:27;12.80;99.90
11824;DHT22;5969;50.780;7.726;2023-05-07T04:24:53;12.80;99.90
11824;DHT22;5969;50.780;7.726;2023-05-07T04:27:21;12.80;99.90
11824;DHT22;5969;50.780;7.726;2023-05-07T04:29:47;12.90;99.90
11824;DHT22;5969;50.780;7.726;2023-05-07T04:32:15;12.90;99.90
11824;DHT22;5969;50.780;7.726;2023-05-07T04:34:43;12.90;99.90
11824;DHT22;5969;50.780;7.726;2023-05-07T04:37:09;13.00;99.90
11824;DHT22;5969;50.780;7.726;2023-05-07T04:39:36;13.00;99.90
11824;DHT22;5969;50.780;7.726;2023-05-07T04:42:03;13.10;99.90
11824;DHT22;5969;50.780;7.726;2023-05-07T04:44:29;13.10;99.90
11824;DHT22;5969;50.780;7.726;2023-05-07T04:46:57;13.20;99.90
11824;DHT22;5969;50.780;7.726;2023-05-07T04:49:25;13.20;99.90
11824;DHT22;5969;50.780;7.726;2023-05-07T04:51:52;13.30;99.90
11824;DHT22;5969;50.780;7.726;2023-05-07T04:54:18;13.40;99.90
11824;DHT22;5969;50.780;7.726;2023-05-07T04:56:45;13.40;99.90
11824;DHT22;5969;50.780;7.726;2023-05-07T04:59:12;13.50;99.90
11824;DHT22;5969;50.780;7.726;2023-05-07T05:01:39;13.50;99.90
11824;DHT22;5969;50.780;7.726;2023-05-07T05:04:05;13.50;99.90
11824;DHT22;5969;50.780;7.726;2023-05-07T05:06:34;13.50;99.90
11824;DHT22;5969;50.780;7.726;2023-05-07T05:09:00;13.60;99.90
11824;DHT22;5969;50.780;7.726;2023-05-07T05:11:27;13.60;99.90
11824;DHT22;5969;50.780;7.726;2023-05-07T05:13:54;13.70;99.90
11824;DHT22;5969;50.780;7.726;2023-05-07T05:16:21;13.70;99.90
11824;DHT22;5969;50.780;7.726;2023-05-07T05:18:47;13.70;99.90
11824;DHT22;5969;50.780;7.726;2023-05-07T05:21:14;13.70;99.90
11824;DHT22;5969;50.780;7.726;2023-05-07T05:23:42;13.80;99.90
11824;DHT22;5969;50.780;7.726;2023-05-07T05:26:09;13.90;99.90
11824;DHT22;5969;50.780;7.726;2023-05-07T05:28:36;14.00;99.90
11824;DHT22;5969;50.780;7.726;2023-05-07T05:31:04;14.10;99.90
11824;DHT22;5969;50.780;7.726;2023-05-07T05:33:31;14.20;99.90
11824;DHT22;5969;50.780;7.726;2023-05-07T05:36:08;14.40;99.90
11824;DHT22;5969;50.780;7.726;2023-05-07T05:38:38;14.50;99.90
11824;DHT22;5969;50.780;7.726;2023-05-07T05:41:09;14.60;99.90
11824;DHT22;5969;50.780;7.726;2023-05-07T05:43:44;14.70;99.90
11824;DHT22;5969;50.780;7.726;2023-05-07T05:46:11;14.80;99.90
11824;DHT22;5969;50.780;7.726;2023-05-07T05:48:57;14.90;99.90
11824;DHT22;5969;50.780;7.726;2023-05-07T05:51:24;15.00;99.90
11824;DHT22;5969;50.780;7.726;2023-05-07T05:53:51;15.00;99.90
11824;DHT22;5969;50.780;7.726;2023-05-07T05:56:20;15.10;99.90
11824;DHT22;5969;50.780;7.726;2023-05-07T05:58:47;15.20;99.90
11824;DHT22;5969;50.780;7.726;2023-05-07T06:01:14;15.30;99.90
11824;DHT22;5969;50.780;7.726;2023-05-07T06:03:40;15.30;99.90
11824;DHT22;5969;50.780;7.726;2023-05-07T06:06:07;15.50;99.90
11824;DHT22;5969;50.780;7.726;2023-05-07T06:08:34;15.50;99.90
11824;DHT22;5969;50.780;7.726;2023-05-07T06:11:01;15.60;99.90
11824;DHT22;5969;50.780;7.726;2023-05-07T06:13:30;15.60;99.90
11824;DHT22;5969;50.780;7.726;2023-05-07T06:15:56;15.70;99.90
11824;DHT22;5969;50.780;7.726;2023-05-07T06:18:23;15.80;99.90
11824;DHT22;5969;50.780;7.726;2023-05-07T06:20:51;16.00;99.90
11824;DHT22;5969;50.780;7.726;2023-05-07T06:23:17;16.10;99.90
11824;DHT22;5969;50.780;7.726;2023-05-07T06:25:49;16.30;99.90
11824;DHT22;5969;50.780;7.726;2023-05-07T06:28:16;16.40;99.90
11824;DHT22;5969;50.780;7.726;2023-05-07T06:30:44;16.50;99.90
11824;DHT22;5969;50.780;7.726;2023-05-07T06:33:11;16.50;99.90
11824;DHT22;5969;50.780;7.726;2023-05-07T06:35:38;16.50;99.90
11824;DHT22;5969;50.780;7.726;2023-05-07T06:38:04;16.60;99.90
11824;DHT22;5969;50.780;7.726;2023-05-07T06:40:31;16.70;99.90
11824;DHT22;5969;50.780;7.726;2023-05-07T06:42:58;16.70;99.90
11824;DHT22;5969;50.780;7.726;2023-05-07T06:45:25;16.80;99.90
11824;DHT22;5969;50.780;7.726;2023-05-07T06:47:53;17.00;99.90
11824;DHT22;5969;50.780;7.726;2023-05-07T06:50:19;17.10;99.90
11824;DHT22;5969;50.780;7.726;2023-05-07T06:52:46;17.20;99.90
11824;DHT22;5969;50.780;7.726;2023-05-07T06:55:13;17.20;99.90
11824;DHT22;5969;50.780;7.726;2023-05-07T06:57:40;17.30;99.90
11824;DHT22;5969;50.780;7.726;2023-05-07T07:00:08;17.40;99.90
11824;DHT22;5969;50.780;7.726;2023-05-07T07:02:35;17.40;99.90
11824;DHT22;5969;50.780;7.726;2023-05-07T07:05:04;17.40;99.90
11824;DHT22;5969;50.780;7.726;2023-05-07T07:07:31;17.60;99.90
11824;DHT22;5969;50.780;7.726;2023-05-07T07:09:58;17.70;99.90
11824;DHT22;5969;50.780;7.726;2023-05-07T07:12:25;17.80;99.90
11824;DHT22;5969;50.780;7.726;2023-05-07T07:14:52;17.90;99.90
11824;DHT22;5969;50.780;7.726;2023-05-07T07:17:18;18.00;99.90
11824;DHT22;5969;50.780;7.726;2023-05-07T07:19:45;18.20;99.90
11824;DHT22;5969;50.780;7.726;2023-05-07T07:22:13;18.30;99.90
11824;DHT22;5969;50.780;7.726;2023-05-07T07:24:40;18.40;99.90
11824;DHT22;5969;50.780;7.726;2023-05-07T07:27:07;18.50;99.90
11824;DHT22;5969;50.780;7.726;2023-05-07T07:29:33;18.70;99.90
11824;DHT22;5969;50.780;7.726;2023-05-07T07:32:00;18.80;99.90
11824;DHT22;5969;50.780;7.726;2023-05-07T07:34:27;18.80;99.90
11824;DHT22;5969;50.780;7.726;2023-05-07T07:36:54;18.90;99.90
11824;DHT22;5969;50.780;7.726;2023-05-07T07:39:23;18.90;99.90
11824;DHT22;5969;50.780;7.726;2023-05-07T07:41:49;19.10;99.90
11824;DHT22;5969;50.780;7.726;2023-05-07T07:44:16;19.30;99.90
11824;DHT22;5969;50.780;7.726;2023-05-07T07:46:43;19.40;99.90
11824;DHT22;5969;50.780;7.726;2023-05-07T07:49:10;19.40;99.90
11824;DHT22;5969;50.780;7.726;2023-05-07T07:51:36;19.40;99.90
11824;DHT22;5969;50.780;7.726;2023-05-07T07:54:03;19.40;99.90
11824;DHT22;5969;50.780;7.726;2023-05-07T07:59:52;19.60;99.90
11824;DHT22;5969;50.780;7.726;2023-05-07T08:02:20;19.80;99.90
11824;DHT22;5969;50.780;7.726;2023-05-07T08:04:47;19.90;99.90
11824;DHT22;5969;50.780;7.726;2023-05-07T08:07:14;20.00;99.90
11824;DHT22;5969;50.780;7.726;2023-05-07T08:09:40;20.10;99.90
11824;DHT22;5969;50.780;7.726;2023-05-07T08:12:07;20.30;99.90
11824;DHT22;5969;50.780;7.726;2023-05-07T08:14:34;20.40;99.90
11824;DHT22;5969;50.780;7.726;2023-05-07T08:17:03;20.50;99.90
11824;DHT22;5969;50.780;7.726;2023-05-07T08:19:30;20.60;99.90
11824;DHT22;5969;50.780;7.726;2023-05-07T08:21:57;20.60;99.90
11824;DHT22;5969;50.780;7.726;2023-05-07T08:24:24;20.70;99.90
11824;DHT22;5969;50.780;7.726;2023-05-07T08:26:50;20.70;99.90
11824;DHT22;5969;50.780;7.726;2023-05-07T08:29:17;20.90;99.90
11824;DHT22;5969;50.780;7.726;2023-05-07T08:31:44;21.10;99.90
11824;DHT22;5969;50.780;7.726;2023-05-07T08:34:12;21.20;99.90
11824;DHT22;5969;50.780;7.726;2023-05-07T08:36:39;21.30;99.90
11824;DHT22;5969;50.780;7.726;2023-05-07T08:39:07;21.50;99.90
11824;DHT22;5969;50.780;7.726;2023-05-07T08:41:34;21.50;99.90
11824;DHT22;5969;50.780;7.726;2023-05-07T08:44:03;21.60;99.90
11824;DHT22;5969;50.780;7.726;2023-05-07T08:46:31;21.50;99.90
11824;DHT22;5969;50.780;7.726;2023-05-07T08:48:58;21.60;99.90
11824;DHT22;5969;50.780;7.726;2023-05-07T08:51:26;21.60;99.90
11824;DHT22;5969;50.780;7.726;2023-05-07T08:53:53;21.70;99.90
11824;DHT22;5969;50.780;7.726;2023-05-07T08:56:20;21.80;99.90
11824;DHT22;5969;50.780;7.726;2023-05-07T08:58:48;21.90;99.90
11824;DHT22;5969;50.780;7.726;2023-05-07T09:01:15;21.90;99.90
11824;DHT22;5969;50.780;7.726;2023-05-07T09:03:44;21.90;99.90
11824;DHT22;5969;50.780;7.726;2023-05-07T09:13:29;22.30;99.90
11824;DHT22;5969;50.780;7.726;2023-05-07T09:15:56;22.70;99.90
11824;DHT22;5969;50.780;7.726;2023-05-07T09:18:23;22.70;99.90
11824;DHT22;5969;50.780;7.726;2023-05-07T09:20:50;22.90;99.90
11824;DHT22;5969;50.780;7.726;2023-05-07T09:23:17;23.00;99.90
11824;DHT22;5969;50.780;7.726;2023-05-07T09:25:44;23.00;99.90
11824;DHT22;5969;50.780;7.726;2023-05-07T09:28:11;23.00;99.90
11824;DHT22;5969;50.780;7.726;2023-05-07T09:30:39;23.10;99.90
11824;DHT22;5969;50.780;7.726;2023-05-07T09:33:06;23.10;99.90
11824;DHT22;5969;50.780;7.726;2023-05-07T09:35:33;23.40;99.90
11824;DHT22;5969;50.780;7.726;2023-05-07T09:38:00;23.60;99.90
11824;DHT22;5969;50.780;7.726;2023-05-07T09:40:29;23.60;99.90
11824;DHT22;5969;50.780;7.726;2023-05-07T09:42:56;23.60;99.90
11824;DHT22;5969;50.780;7.726;2023-05-07T09:45:34;23.60;99.90
11824;DHT22;5969;50.780;7.726;2023-05-07T09:48:05;23.30;99.90
11824;DHT22;5969;50.780;7.726;2023-05-07T09:50:35;23.30;99.90
11824;DHT22;5969;50.780;7.726;2023-05-07T09:53:03;23.40;99.90
11824;DHT22;5969;50.780;7.726;2023-05-07T09:55:30;23.70;99.90
11824;DHT22;5969;50.780;7.726;2023-05-07T09:57:58;23.70;99.90
11824;DHT22;5969;50.780;7.726;2023-05-07T10:00:28;23.90;99.90
11824;DHT22;5969;50.780;7.726;2023-05-07T10:02:57;24.00;99.90
11824;DHT22;5969;50.780;7.726;2023-05-07T10:05:25;24.20;99.90
11824;DHT22;5969;50.780;7.726;2023-05-07T10:07:53;24.20;99.90
11824;DHT22;5969;50.780;7.726;2023-05-07T10:10:21;24.40;99.40
11824;DHT22;5969;50.780;7.726;2023-05-07T10:12:49;24.60;98.70
11824;DHT22;5969;50.780;7.726;2023-05-07T10:15:16;24.60;99.30
11824;DHT22;5969;50.780;7.726;2023-05-07T10:17:44;24.80;98.60
11824;DHT22;5969;50.780;7.726;2023-05-07T10:20:12;24.80;98.30
11824;DHT22;5969;50.780;7.726;2023-05-07T10:22:43;24.80;98.70
11824;DHT22;5969;50.780;7.726;2023-05-07T10:25:16;24.80;98.60
11824;DHT22;5969;50.780;7.726;2023-05-07T10:27:45;25.00;98.80
11824;DHT22;5969;50.780;7.726;2023-05-07T10:30:20;25.10;98.60
11824;DHT22;5969;50.780;7.726;2023-05-07T10:32:54;25.20;98.80
11824;DHT22;5969;50.780;7.726;2023-05-07T10:35:24;25.30;98.40
11824;DHT22;5969;50.780;7.726;2023-05-07T10:37:53;25.30;98.20
11824;DHT22;5969;50.780;7.726;2023-05-07T10:40:21;25.40;97.20
11824;DHT22;5969;50.780;7.726;2023-05-07T10:42:55;25.30;98.00
11824;DHT22;5969;50.780;7.726;2023-05-07T10:45:23;25.20;97.40
11824;DHT22;5969;50.780;7.726;2023-05-07T10:48:10;24.90;97.50
11824;DHT22;5969;50.780;7.726;2023-05-07T10:50:37;24.80;97.40
11824;DHT22;5969;50.780;7.726;2023-05-07T10:53:25;24.50;96.70
11824;DHT22;5969;50.780;7.726;2023-05-07T10:56:26;24.20;96.90
11824;DHT22;5969;50.780;7.726;2023-05-07T11:01:52;24.00;97.80
11824;DHT22;5969;50.780;7.726;2023-05-07T11:04:19;24.00;97.60
11824;DHT22;5969;50.780;7.726;2023-05-07T11:07:27;24.00;97.00
11824;DHT22;5969;50.780;7.726;2023-05-07T11:10:00;24.10;97.30
11824;DHT22;5969;50.780;7.726;2023-05-07T11:12:49;24.20;97.40
11824;DHT22;5969;50.780;7.726;2023-05-07T11:15:37;24.20;97.60
11824;DHT22;5969;50.780;7.726;2023-05-07T11:18:04;24.40;97.10
11824;DHT22;5969;50.780;7.726;2023-05-07T11:21:04;24.50;96.90
11824;DHT22;5969;50.780;7.726;2023-05-07T11:23:57;24.50;96.80
11824;DHT22;5969;50.780;7.726;2023-05-07T11:26:29;24.40;96.80
11824;DHT22;5969;50.780;7.726;2023-05-07T11:28:57;24.20;96.80
11824;DHT22;5969;50.780;7.726;2023-05-07T11:31:26;24.00;97.00
11824;DHT22;5969;50.780;7.726;2023-05-07T11:33:55;23.80;96.80
11824;DHT22;5969;50.780;7.726;2023-05-07T11:36:23;23.80;97.00
11824;DHT22;5969;50.780;7.726;2023-05-07T11:38:50;23.60;97.20
11824;DHT22;5969;50.780;7.726;2023-05-07T11:41:17;23.50;97.20
11824;DHT22;5969;50.780;7.726;2023-05-07T11:43:57;23.30;97.40
11824;DHT22;5969;50.780;7.726;2023-05-07T11:46:25;23.20;97.40
11824;DHT22;5969;50.780;7.726;2023-05-07T11:48:52;23.10;97.40
11824;DHT22;5969;50.780;7.726;2023-05-07T11:51:20;23.00;97.80
11824;DHT22;5969;50.780;7.726;2023-05-07T11:53:47;22.70;97.60
11824;DHT22;5969;50.780;7.726;2023-05-07T11:56:15;22.60;97.60
11824;DHT22;5969;50.780;7.726;2023-05-07T11:58:43;22.50;97.90
11824;DHT22;5969;50.780;7.726;2023-05-07T12:01:12;22.50;97.90
11824;DHT22;5969;50.780;7.726;2023-05-07T12:03:41;22.60;97.90
11824;DHT22;5969;50.780;7.726;2023-05-07T12:06:09;22.70;97.70
11824;DHT22;5969;50.780;7.726;2023-05-07T12:08:37;22.60;97.80
11824;DHT22;5969;50.780;7.726;2023-05-07T12:11:07;22.60;97.50
11824;DHT22;5969;50.780;7.726;2023-05-07T12:13:34;22.50;98.00
11824;DHT22;5969;50.780;7.726;2023-05-07T12:16:01;22.50;97.40
11824;DHT22;5969;50.780;7.726;2023-05-07T12:18:30;22.50;97.60
11824;DHT22;5969;50.780;7.726;2023-05-07T12:20:57;22.50;97.60
11824;DHT22;5969;50.780;7.726;2023-05-07T12:23:25;22.40;97.70
11824;DHT22;5969;50.780;7.726;2023-05-07T12:25:53;22.30;97.90
11824;DHT22;5969;50.780;7.726;2023-05-07T12:28:20;22.30;97.50
11824;DHT22;5969;50.780;7.726;2023-05-07T12:30:48;22.20;97.80
11824;DHT22;5969;50.780;7.726;2023-05-07T12:33:16;22.10;97.90
11824;DHT22;5969;50.780;7.726;2023-05-07T12:35:47;22.10;97.70
11824;DHT22;5969;50.780;7.726;2023-05-07T12:38:16;22.10;97.40
11824;DHT22;5969;50.780;7.726;2023-05-07T12:40:45;22.10;97.20
11824;DHT22;5969;50.780;7.726;2023-05-07T12:43:16;22.00;97.80
11824;DHT22;5969;50.780;7.726;2023-05-07T12:45:44;22.00;97.90
11824;DHT22;5969;50.780;7.726;2023-05-07T12:48:11;21.90;97.80
11824;DHT22;5969;50.780;7.726;2023-05-07T12:50:38;21.80;98.10
11824;DHT22;5969;50.780;7.726;2023-05-07T12:53:07;21.60;98.50
11824;DHT22;5969;50.780;7.726;2023-05-07T12:55:41;21.50;98.70
11824;DHT22;5969;50.780;7.726;2023-05-07T12:58:07;21.50;99.00
11824;DHT22;5969;50.780;7.726;2023-05-07T13:00:35;21.70;99.00
11824;DHT22;5969;50.780;7.726;2023-05-07T13:03:02;21.80;99.10
11824;DHT22;5969;50.780;7.726;2023-05-07T13:05:30;21.90;99.10
11824;DHT22;5969;50.780;7.726;2023-05-07T13:07:57;21.90;99.30
11824;DHT22;5969;50.780;7.726;2023-05-07T13:10:26;22.00;99.50
11824;DHT22;5969;50.780;7.726;2023-05-07T13:12:53;21.90;99.60
11824;DHT22;5969;50.780;7.726;2023-05-07T13:15:20;22.00;99.90
11824;DHT22;5969;50.780;7.726;2023-05-07T13:17:47;22.00;99.70
11824;DHT22;5969;50.780;7.726;2023-05-07T13:20:14;22.10;98.80
11824;DHT22;5969;50.780;7.726;2023-05-07T13:22:41;22.10;99.60
11824;DHT22;5969;50.780;7.726;2023-05-07T13:25:08;22.30;99.20
11824;DHT22;5969;50.780;7.726;2023-05-07T13:27:36;22.50;99.30
11824;DHT22;5969;50.780;7.726;2023-05-07T13:30:04;22.70;99.10
11824;DHT22;5969;50.780;7.726;2023-05-07T13:32:32;22.70;99.30
11824;DHT22;5969;50.780;7.726;2023-05-07T13:34:58;23.00;99.10
11824;DHT22;5969;50.780;7.726;2023-05-07T13:37:25;23.30;99.00
11824;DHT22;5969;50.780;7.726;2023-05-07T13:39:52;23.60;98.80
11824;DHT22;5969;50.780;7.726;2023-05-07T13:42:19;23.90;98.20
11824;DHT22;5969;50.780;7.726;2023-05-07T13:44:47;23.90;99.00
11824;DHT22;5969;50.780;7.726;2023-05-07T13:47:14;24.00;98.80
11824;DHT22;5969;50.780;7.726;2023-05-07T13:49:43;24.10;98.60
11824;DHT22;5969;50.780;7.726;2023-05-07T13:52:15;24.30;98.80
11824;DHT22;5969;50.780;7.726;2023-05-07T13:54:42;24.70;98.70
11824;DHT22;5969;50.780;7.726;2023-05-07T13:57:08;25.50;98.50
11824;DHT22;5969;50.780;7.726;2023-05-07T13:59:35;26.40;97.50
11824;DHT22;5969;50.780;7.726;2023-05-07T14:02:03;26.90;96.80
11824;DHT22;5969;50.780;7.726;2023-05-07T14:04:34;27.80;97.90
11824;DHT22;5969;50.780;7.726;2023-05-07T14:07:03;29.80;95.50
11824;DHT22;5969;50.780;7.726;2023-05-07T14:09:32;31.40;92.80
11824;DHT22;5969;50.780;7.726;2023-05-07T14:11:59;32.00;92.90
11824;DHT22;5969;50.780;7.726;2023-05-07T14:14:26;32.40;92.10
11824;DHT22;5969;50.780;7.726;2023-05-07T14:16:53;33.20;90.60
11824;DHT22;5969;50.780;7.726;2023-05-07T14:19:22;33.30;90.30
11824;DHT22;5969;50.780;7.726;2023-05-07T14:21:49;33.60;90.60
11824;DHT22;5969;50.780;7.726;2023-05-07T14:24:16;34.30;90.20
11824;DHT22;5969;50.780;7.726;2023-05-07T14:26:43;34.60;87.50
11824;DHT22;5969;50.780;7.726;2023-05-07T14:29:11;33.90;86.50
11824;DHT22;5969;50.780;7.726;2023-05-07T14:31:38;32.90;88.10
11824;DHT22;5969;50.780;7.726;2023-05-07T14:34:05;32.50;88.40
11824;DHT22;5969;50.780;7.726;2023-05-07T14:36:36;31.80;90.20
11824;DHT22;5969;50.780;7.726;2023-05-07T14:39:03;31.40;88.20
11824;DHT22;5969;50.780;7.726;2023-05-07T14:41:30;30.30;90.30
11824;DHT22;5969;50.780;7.726;2023-05-07T14:43:58;29.50;90.60
11824;DHT22;5969;50.780;7.726;2023-05-07T14:46:25;28.60;90.90
11824;DHT22;5969;50.780;7.726;2023-05-07T14:48:55;27.90;91.50
11824;DHT22;5969;50.780;7.726;2023-05-07T14:51:22;27.00;92.70
11824;DHT22;5969;50.780;7.726;2023-05-07T14:53:51;26.40;92.40
11824;DHT22;5969;50.780;7.726;2023-05-07T14:56:18;25.90;92.80
11824;DHT22;5969;50.780;7.726;2023-05-07T14:58:47;25.30;93.30
11824;DHT22;5969;50.780;7.726;2023-05-07T15:01:14;24.70;93.50
11824;DHT22;5969;50.780;7.726;2023-05-07T15:03:40;24.50;93.70
11824;DHT22;5969;50.780;7.726;2023-05-07T15:06:07;24.20;94.00
11824;DHT22;5969;50.780;7.726;2023-05-07T15:08:38;23.90;94.10
11824;DHT22;5969;50.780;7.726;2023-05-07T15:11:08;23.60;94.50
11824;DHT22;5969;50.780;7.726;2023-05-07T15:13:35;23.50;94.90
11824;DHT22;5969;50.780;7.726;2023-05-07T15:16:02;23.40;95.00
11824;DHT22;5969;50.780;7.726;2023-05-07T15:18:29;23.30;95.50
11824;DHT22;5969;50.780;7.726;2023-05-07T15:20:56;23.10;95.90
11824;DHT22;5969;50.780;7.726;2023-05-07T15:23:30;23.00;96.00
11824;DHT22;5969;50.780;7.726;2023-05-07T15:25:57;22.80;96.20
11824;DHT22;5969;50.780;7.726;2023-05-07T15:28:32;22.70;96.50
11824;DHT22;5969;50.780;7.726;2023-05-07T15:31:02;22.40;97.10
11824;DHT22;5969;50.780;7.726;2023-05-07T15:33:35;22.10;97.60
11824;DHT22;5969;50.780;7.726;2023-05-07T15:36:07;21.70;98.30
11824;DHT22;5969;50.780;7.726;2023-05-07T15:38:40;21.60;99.00
11824;DHT22;5969;50.780;7.726;2023-05-07T15:41:07;21.20;99.80
11824;DHT22;5969;50.780;7.726;2023-05-07T15:43:44;21.00;99.90
11824;DHT22;5969;50.780;7.726;2023-05-07T15:46:36;20.70;99.90
11824;DHT22;5969;50.780;7.726;2023-05-07T15:49:06;20.50;99.90
11824;DHT22;5969;50.780;7.726;2023-05-07T15:51:37;20.30;99.90
11824;DHT22;5969;50.780;7.726;2023-05-07T15:54:04;20.30;99.90
11824;DHT22;5969;50.780;7.726;2023-05-07T15:56:31;20.20;99.90
11824;DHT22;5969;50.780;7.726;2023-05-07T15:59:00;19.90;99.90
11824;DHT22;5969;50.780;7.726;2023-05-07T16:01:34;19.80;99.90
11824;DHT22;5969;50.780;7.726;2023-05-07T16:04:01;20.00;99.90
11824;DHT22;5969;50.780;7.726;2023-05-07T16:06:28;19.80;99.90